Cashiers, NC (28717)

11:46 AM EST on December 06, 2016 (GMT -0500)
Wild Ridge | | Change Station

Elev 4160 ft 35.13 °N, 83.11 °W | Updated 27 seconds ago

Rain
Rain
41.9 °F
Feels Like 40 °F
N
4.0
Wind Variable Wind from East
Gusts 12.0 mph

Today
High -- | Low -- °F
--% Chance of Precip.
Yesterday
High -- | Low -- °F
Precip. -- in
Pressure 29.73 in
Visibility 7.0 miles
Clouds Scattered Clouds 1400 ft
Overcast 2300 ft
Windchill 40 °F
Dew Point 42 °F
Humidity 99%
Rainfall 0.43 in
Snow Depth Not available.
7:27 AM 5:20 PM
Waxing Crescent, 43% visible
METAR K1A5 061625Z AUTO 00000KT 7SM RA SCT014 OVC023 12/09 A2973 RMK AO2 P0001 T01150093
Pressure 29.73 in
Visibility 7.0 miles
Clouds Scattered Clouds 1400 ft
Overcast 2300 ft
Windchill 40 °F
Dew Point 42 °F
Humidity 99%
Rainfall 0.43 in
Snow Depth Not available.
7:27 AM 5:20 PM
Waxing Crescent, 43% visible
METAR K1A5 061625Z AUTO 00000KT 7SM RA SCT014 OVC023 12/09 A2973 RMK AO2 P0001 T01150093

10-Day Weather Forecast

Almanac

Astronomy

Dec. 06, 2016 Rise Set
Actual Time
Civil Twilight
Nautical Twilight
Astronomical Twilight
Moon
Length of Visible Light
Length of Day
Tomorrow will be .
, % of the Moon is Illuminated

Today's Extremes

State Highs State Lows

Community

WunderPhotos

Upload Photos

1,955,983 photos uploaded!

WunderBlog® & News

Nearby

Air Quality

  Air Quality AQ Index Pollutant
Not available.

Snow Depth

Station Depth Elevation

Earthquake Activity

City Distance Mag. Time & Date
Minimum magnitude displayed is 2.5.

Coastal Water Temperatures

Place Temperature

Stations

Nearby Weather Stations

Station Location Temp. Windchill Dew Point Humidity Wind Precip. Elev Updated Type
                   

Watches & Warnings

There are currently no watches in effect.